Time;durP1;ratioP1;P1;durP2;ratioP2;P2;SDS_P1;SDS_P2;PMS_P1;PMS_P2;Temp;Humidity;BMP_temperature;BMP_pressure;BME280_temperature;BME280_humidity;BME280_pressure;Samples;Min_cycle;Max_cycle;Signal;HPM_P1;HPM_P2
2023/08/23 00:00:45;;;;;;;4.50;2.30;;;;;;;;;;5043508;28;20419;-61
2023/08/23 00:03:12;;;;;;;6.55;2.72;;;;;;;;;;5044130;28;20775;-60
2023/08/23 00:05:39;;;;;;;7.07;2.80;;;;;;;;;;5042503;28;20417;-60
2023/08/23 00:08:06;;;;;;;7.97;2.85;;;;;;;;;;5045015;28;20467;-60
2023/08/23 00:10:33;;;;;;;6.97;2.78;;;;;;;;;;5044379;28;20424;-59
2023/08/23 00:13:00;;;;;;;5.07;2.60;;;;;;;;;;5044341;28;20482;-60
2023/08/23 00:15:29;;;;;;;6.57;2.90;;;;;;;;;;5044445;28;20491;-60
2023/08/23 00:17:56;;;;;;;5.20;2.92;;;;;;;;;;5043711;28;20828;-61
2023/08/23 00:20:23;;;;;;;5.30;2.95;;;;;;;;;;5045989;28;20468;-60
2023/08/23 00:22:50;;;;;;;5.88;2.90;;;;;;;;;;5045307;28;20411;-62
2023/08/23 00:25:17;;;;;;;10.20;3.65;;;;;;;;;;5046020;28;20417;-62
2023/08/23 00:27:44;;;;;;;5.30;3.15;;;;;;;;;;5041247;28;20415;-61
2023/08/23 00:30:12;;;;;;;4.35;2.90;;;;;;;;;;5044456;28;20887;-62
2023/08/23 00:32:40;;;;;;;5.60;3.40;;;;;;;;;;5040755;28;20521;-62
2023/08/23 00:35:07;;;;;;;8.40;3.78;;;;;;;;;;5047461;28;20504;-62
2023/08/23 00:37:34;;;;;;;6.63;3.47;;;;;;;;;;5040608;28;20407;-62
2023/08/23 00:40:02;;;;;;;5.65;3.25;;;;;;;;;;5047239;28;20413;-62
2023/08/23 00:42:29;;;;;;;6.05;3.60;;;;;;;;;;5040327;28;20419;-62
2023/08/23 00:44:56;;;;;;;9.27;3.60;;;;;;;;;;5046426;28;20492;-62
2023/08/23 00:47:23;;;;;;;8.35;4.00;;;;;;;;;;5045171;28;20470;-62
2023/08/23 00:49:51;;;;;;;7.60;3.70;;;;;;;;;;5049569;28;20485;-62
2023/08/23 00:52:18;;;;;;;5.65;3.70;;;;;;;;;;5045024;28;20436;-61
2023/08/23 00:54:45;;;;;;;5.85;3.60;;;;;;;;;;5050620;28;20481;-62
2023/08/23 00:57:13;;;;;;;7.40;3.78;;;;;;;;;;5041507;28;20890;-60
2023/08/23 00:59:40;;;;;;;8.20;4.10;;;;;;;;;;5047795;28;20461;-60
2023/08/23 01:02:07;;;;;;;7.00;3.90;;;;;;;;;;5046385;28;20810;-60
2023/08/23 01:04:34;;;;;;;8.10;4.43;;;;;;;;;;5048549;28;20424;-62
2023/08/23 01:07:06;;;;;;;8.97;4.17;;;;;;;;;;5045092;28;20421;-62
2023/08/23 01:09:38;;;;;;;10.60;4.60;;;;;;;;;;5048189;28;20413;-59
2023/08/23 01:12:08;;;;;;;10.40;4.22;;;;;;;;;;5045586;28;20749;-61
2023/08/23 01:14:42;;;;;;;7.88;3.95;;;;;;;;;;5047546;28;20413;-61
2023/08/23 01:17:10;;;;;;;7.85;4.20;;;;;;;;;;5045841;28;20416;-60
2023/08/23 01:19:43;;;;;;;8.10;4.20;;;;;;;;;;5046888;28;20468;-62
2023/08/23 01:22:14;;;;;;;8.40;4.30;;;;;;;;;;5041791;28;20409;-62
2023/08/23 01:24:42;;;;;;;8.70;3.95;;;;;;;;;;5049306;28;20405;-61
2023/08/23 01:27:09;;;;;;;9.35;4.80;;;;;;;;;;5045106;28;20408;-60
2023/08/23 01:29:36;;;;;;;10.18;4.40;;;;;;;;;;5046013;28;20418;-62
2023/08/23 01:32:11;;;;;;;8.32;4.28;;;;;;;;;;5051829;28;20414;-62
2023/08/23 01:34:39;;;;;;;8.75;4.68;;;;;;;;;;5050355;28;20415;-62
2023/08/23 01:37:07;;;;;;;9.43;4.13;;;;;;;;;;5048007;28;20459;-62
2023/08/23 01:39:34;;;;;;;8.57;4.57;;;;;;;;;;5045346;28;20833;-59
2023/08/23 01:42:03;;;;;;;9.93;4.70;;;;;;;;;;5047519;28;20463;-60
2023/08/23 01:44:30;;;;;;;9.48;4.80;;;;;;;;;;5045160;28;20413;-64
2023/08/23 01:46:57;;;;;;;9.73;4.40;;;;;;;;;;5051510;28;20926;-64
2023/08/23 01:49:24;;;;;;;7.47;4.03;;;;;;;;;;5047821;28;20432;-64
2023/08/23 01:51:51;;;;;;;7.68;3.90;;;;;;;;;;5051783;28;20463;-64
2023/08/23 01:54:18;;;;;;;9.82;3.90;;;;;;;;;;5049430;28;20433;-64
2023/08/23 01:56:45;;;;;;;10.10;4.63;;;;;;;;;;5049927;28;20918;-64
2023/08/23 01:59:13;;;;;;;7.25;4.57;;;;;;;;;;5046488;28;20410;-64
2023/08/23 02:01:40;;;;;;;7.97;3.97;;;;;;;;;;5051340;28;20467;-64
2023/08/23 02:04:07;;;;;;;10.55;4.32;;;;;;;;;;5046676;28;20406;-64
2023/08/23 02:06:34;;;;;;;7.82;4.32;;;;;;;;;;5050562;28;20486;-64
2023/08/23 02:09:01;;;;;;;7.78;4.30;;;;;;;;;;5048905;28;20409;-64
2023/08/23 02:11:28;;;;;;;11.70;5.20;;;;;;;;;;5046984;28;20425;-64
2023/08/23 02:13:55;;;;;;;7.93;4.88;;;;;;;;;;5044589;28;20427;-64
2023/08/23 02:16:24;;;;;;;6.95;4.32;;;;;;;;;;5050238;28;20818;-64
2023/08/23 02:18:51;;;;;;;7.53;4.80;;;;;;;;;;5050294;28;20947;-64
2023/08/23 02:21:18;;;;;;;9.77;4.47;;;;;;;;;;5051128;28;20467;-64
2023/08/23 02:23:45;;;;;;;7.93;4.15;;;;;;;;;;5048246;28;20808;-61
2023/08/23 02:26:12;;;;;;;8.70;4.35;;;;;;;;;;5048734;28;21329;-61
2023/08/23 02:28:39;;;;;;;7.07;4.30;;;;;;;;;;5041973;28;20492;-61
2023/08/23 02:31:06;;;;;;;6.35;3.97;;;;;;;;;;5050473;28;20421;-61
2023/08/23 02:33:34;;;;;;;6.22;4.10;;;;;;;;;;5041782;28;20431;-60
2023/08/23 02:36:01;;;;;;;7.18;3.97;;;;;;;;;;5047945;28;20435;-59
2023/08/23 02:38:28;;;;;;;7.45;3.90;;;;;;;;;;5042198;28;20423;-59
2023/08/23 02:40:56;;;;;;;7.38;4.07;;;;;;;;;;5047425;28;20481;-62
2023/08/23 02:43:23;;;;;;;6.10;3.83;;;;;;;;;;5047593;28;20493;-62
2023/08/23 02:45:50;;;;;;;7.03;4.53;;;;;;;;;;5046519;28;20415;-62
2023/08/23 02:48:17;;;;;;;9.18;4.75;;;;;;;;;;5044861;28;20409;-61
2023/08/23 02:50:45;;;;;;;9.07;4.63;;;;;;;;;;5046173;28;20469;-62
2023/08/23 02:53:12;;;;;;;10.88;5.60;;;;;;;;;;5044576;28;20985;-62
2023/08/23 02:55:39;;;;;;;9.48;5.07;;;;;;;;;;5047766;28;20469;-63
2023/08/23 02:58:06;;;;;;;8.98;4.85;;;;;;;;;;5044764;28;20419;-61
2023/08/23 03:00:34;;;;;;;10.88;5.63;;;;;;;;;;5043750;28;20905;-60
2023/08/23 03:03:01;;;;;;;10.32;5.47;;;;;;;;;;5047113;28;20408;-61
2023/08/23 03:05:28;;;;;;;11.65;6.25;;;;;;;;;;5049670;28;20420;-61
2023/08/23 03:07:57;;;;;;;10.88;5.75;;;;;;;;;;5047882;28;20957;-58
2023/08/23 03:10:24;;;;;;;10.55;5.47;;;;;;;;;;5041812;28;20419;-59
2023/08/23 03:12:51;;;;;;;11.73;5.63;;;;;;;;;;5049525;28;20413;-59
2023/08/23 03:15:18;;;;;;;10.80;5.73;;;;;;;;;;5047991;28;20418;-60
2023/08/23 03:17:45;;;;;;;10.38;6.32;;;;;;;;;;5047095;28;20413;-61
2023/08/23 03:20:12;;;;;;;9.85;6.20;;;;;;;;;;5052048;28;20491;-60
2023/08/23 03:22:39;;;;;;;11.45;6.75;;;;;;;;;;5045605;28;20838;-62
2023/08/23 03:25:08;;;;;;;11.00;6.57;;;;;;;;;;5046214;28;20412;-61
2023/08/23 03:27:35;;;;;;;10.93;6.90;;;;;;;;;;5042582;28;20417;-62
2023/08/23 03:30:02;;;;;;;13.98;7.22;;;;;;;;;;5045272;28;20417;-60
2023/08/23 03:32:29;;;;;;;12.60;7.00;;;;;;;;;;5043199;28;20812;-62
2023/08/23 03:34:55;;;;;;;14.88;7.50;;;;;;;;;;5042407;28;20474;-60
2023/08/23 03:37:22;;;;;;;12.90;7.57;;;;;;;;;;5048240;28;20418;-60
2023/08/23 03:39:49;;;;;;;16.13;7.40;;;;;;;;;;5043075;28;20827;-62
2023/08/23 03:42:18;;;;;;;17.15;7.63;;;;;;;;;;5051656;28;20415;-61
2023/08/23 03:44:45;;;;;;;14.47;7.57;;;;;;;;;;5040366;28;20415;-62
2023/08/23 03:47:12;;;;;;;13.07;8.20;;;;;;;;;;5051124;28;20903;-60
2023/08/23 03:49:39;;;;;;;15.90;7.97;;;;;;;;;;5038779;28;20486;-61
2023/08/23 03:52:06;;;;;;;15.95;8.40;;;;;;;;;;5041913;28;20463;-62
2023/08/23 03:54:33;;;;;;;17.48;8.13;;;;;;;;;;5045240;28;20425;-62
2023/08/23 03:57:00;;;;;;;13.32;7.80;;;;;;;;;;5044657;28;20411;-61
2023/08/23 03:59:28;;;;;;;15.07;7.90;;;;;;;;;;5043067;28;21010;-60
2023/08/23 04:01:55;;;;;;;14.55;8.10;;;;;;;;;;5046135;28;20484;-62
2023/08/23 04:04:22;;;;;;;14.88;7.53;;;;;;;;;;5042074;28;20409;-62
2023/08/23 04:06:49;;;;;;;12.40;7.10;;;;;;;;;;5044919;28;20829;-60
2023/08/23 04:09:16;;;;;;;14.00;7.40;;;;;;;;;;5043431;28;20417;-62
2023/08/23 04:11:43;;;;;;;14.80;7.38;;;;;;;;;;5043998;28;20427;-62
2023/08/23 04:14:10;;;;;;;12.50;6.68;;;;;;;;;;5043439;28;20475;-62
2023/08/23 04:16:39;;;;;;;12.63;7.23;;;;;;;;;;5043617;28;20497;-61
2023/08/23 04:19:06;;;;;;;13.07;7.15;;;;;;;;;;5043226;28;20474;-62
2023/08/23 04:21:33;;;;;;;12.57;7.82;;;;;;;;;;5044506;28;20475;-62
2023/08/23 04:24:00;;;;;;;12.18;7.47;;;;;;;;;;5042153;28;20415;-61
2023/08/23 04:26:27;;;;;;;12.52;7.78;;;;;;;;;;5046812;28;20953;-61
2023/08/23 04:28:54;;;;;;;14.13;7.70;;;;;;;;;;5041630;28;20411;-61
2023/08/23 04:31:21;;;;;;;11.93;7.97;;;;;;;;;;5046835;28;20903;-61
2023/08/23 04:33:50;;;;;;;15.68;8.15;;;;;;;;;;5039761;28;20427;-60
2023/08/23 04:36:17;;;;;;;14.02;7.97;;;;;;;;;;5046824;28;20459;-61
2023/08/23 04:38:43;;;;;;;13.83;8.00;;;;;;;;;;5039820;28;20824;-62
2023/08/23 04:41:10;;;;;;;16.88;8.07;;;;;;;;;;5046427;28;20409;-62
2023/08/23 04:43:37;;;;;;;13.93;7.60;;;;;;;;;;5039160;28;20415;-61
2023/08/23 04:46:06;;;;;;;12.00;7.57;;;;;;;;;;5045895;28;20941;-62
2023/08/23 04:48:33;;;;;;;13.45;7.90;;;;;;;;;;5042573;28;20504;-62
2023/08/23 04:51:02;;;;;;;15.35;7.50;;;;;;;;;;5044899;28;20419;-58
2023/08/23 04:53:29;;;;;;;11.97;7.93;;;;;;;;;;5042381;28;20439;-59
2023/08/23 04:55:59;;;;;;;15.38;8.80;;;;;;;;;;5044123;28;20423;-60
2023/08/23 04:58:29;;;;;;;15.88;9.23;;;;;;;;;;5037501;28;20423;-62
2023/08/23 05:00:58;;;;;;;16.77;10.40;;;;;;;;;;5040187;28;20415;-61
2023/08/23 05:03:25;;;;;;;19.13;12.48;;;;;;;;;;5036033;28;20440;-61
2023/08/23 05:05:52;;;;;;;89.07;61.78;;;;;;;;;;5040321;28;20429;-62
2023/08/23 05:08:21;;;;;;;29.48;19.48;;;;;;;;;;5036609;28;20486;-61
2023/08/23 05:10:52;;;;;;;21.20;13.98;;;;;;;;;;5041071;28;20421;-62
2023/08/23 05:13:19;;;;;;;15.40;10.65;;;;;;;;;;5034195;28;20420;-62
2023/08/23 05:15:46;;;;;;;15.38;9.50;;;;;;;;;;5039586;28;20418;-61
2023/08/23 05:18:13;;;;;;;13.25;9.40;;;;;;;;;;5037503;28;20416;-62
2023/08/23 05:20:40;;;;;;;13.27;8.60;;;;;;;;;;5034869;28;20419;-62
2023/08/23 05:23:07;;;;;;;15.32;8.90;;;;;;;;;;5036271;28;20471;-62
2023/08/23 05:25:35;;;;;;;15.27;8.95;;;;;;;;;;5046386;28;20467;-62
2023/08/23 05:28:02;;;;;;;17.45;8.43;;;;;;;;;;5043102;28;20959;-62
2023/08/23 05:30:30;;;;;;;17.80;9.35;;;;;;;;;;5042958;28;20466;-62
2023/08/23 05:32:57;;;;;;;17.40;9.80;;;;;;;;;;5045501;28;20422;-62
2023/08/23 05:35:24;;;;;;;14.97;9.57;;;;;;;;;;5046831;28;20926;-62
2023/08/23 05:37:51;;;;;;;14.10;9.85;;;;;;;;;;5045284;28;20444;-62
2023/08/23 05:40:18;;;;;;;15.45;9.40;;;;;;;;;;5047367;28;20409;-62
2023/08/23 05:42:46;;;;;;;17.02;9.32;;;;;;;;;;5047061;28;20413;-62
2023/08/23 05:45:13;;;;;;;14.95;8.68;;;;;;;;;;5049175;28;20406;-64
2023/08/23 05:47:40;;;;;;;12.43;8.45;;;;;;;;;;5045325;28;20409;-65
2023/08/23 05:50:08;;;;;;;12.70;8.00;;;;;;;;;;5045049;28;20421;-66
2023/08/23 05:52:35;;;;;;;13.02;8.27;;;;;;;;;;5036718;28;20433;-67
2023/08/23 05:55:02;;;;;;;13.98;8.00;;;;;;;;;;5047390;28;20425;-64
2023/08/23 05:57:29;;;;;;;17.95;7.97;;;;;;;;;;5046785;28;20421;-65
2023/08/23 05:59:57;;;;;;;14.00;8.40;;;;;;;;;;5043684;28;20462;-65
2023/08/23 06:02:24;;;;;;;13.52;8.43;;;;;;;;;;5046780;28;20406;-65
2023/08/23 06:04:51;;;;;;;12.87;8.40;;;;;;;;;;5043042;28;20810;-65
2023/08/23 06:07:19;;;;;;;17.20;9.48;;;;;;;;;;5049297;28;20413;-64
2023/08/23 06:09:46;;;;;;;15.67;9.33;;;;;;;;;;5046499;28;20504;-64
2023/08/23 06:12:12;;;;;;;13.60;8.10;;;;;;;;;;5049302;28;20776;-64
2023/08/23 06:14:40;;;;;;;12.57;8.20;;;;;;;;;;5042982;28;20450;-64
2023/08/23 06:17:08;;;;;;;16.17;9.30;;;;;;;;;;5048556;28;20405;-65
2023/08/23 06:19:35;;;;;;;14.77;8.95;;;;;;;;;;5044939;28;20419;-64
2023/08/23 06:22:02;;;;;;;13.87;7.97;;;;;;;;;;5048969;28;20499;-65
2023/08/23 06:24:29;;;;;;;13.10;7.32;;;;;;;;;;5047062;28;20858;-64
2023/08/23 06:26:56;;;;;;;9.13;6.05;;;;;;;;;;5049702;28;20422;-65
2023/08/23 06:29:23;;;;;;;11.10;6.10;;;;;;;;;;5045275;28;20401;-65
2023/08/23 06:31:50;;;;;;;9.98;6.57;;;;;;;;;;5049276;28;20419;-65
2023/08/23 06:34:18;;;;;;;11.57;6.50;;;;;;;;;;5046600;28;20421;-65
2023/08/23 06:36:46;;;;;;;16.25;9.45;;;;;;;;;;5046443;28;20508;-64
2023/08/23 06:39:13;;;;;;;15.57;9.45;;;;;;;;;;5046712;28;20421;-64
2023/08/23 06:41:40;;;;;;;17.48;10.27;;;;;;;;;;5049941;28;20418;-66
2023/08/23 06:44:07;;;;;;;13.63;9.52;;;;;;;;;;5044231;28;20409;-66
2023/08/23 06:46:34;;;;;;;11.95;7.72;;;;;;;;;;5051866;28;20413;-64
2023/08/23 06:49:01;;;;;;;15.80;11.18;;;;;;;;;;5047182;28;20473;-65
2023/08/23 06:51:30;;;;;;;15.90;10.68;;;;;;;;;;5052915;28;20413;-66
2023/08/23 06:53:57;;;;;;;20.88;12.02;;;;;;;;;;5042873;28;20489;-66
2023/08/23 06:56:25;;;;;;;18.02;11.77;;;;;;;;;;5047080;28;20443;-67
2023/08/23 06:58:52;;;;;;;19.20;11.48;;;;;;;;;;5047424;28;20417;-65
2023/08/23 07:01:19;;;;;;;19.20;10.97;;;;;;;;;;5052064;28;20791;-65
2023/08/23 07:03:46;;;;;;;16.58;12.02;;;;;;;;;;5050478;28;20923;-66
2023/08/23 07:06:14;;;;;;;20.17;12.63;;;;;;;;;;5048614;28;20416;-65
2023/08/23 07:08:43;;;;;;;18.35;11.70;;;;;;;;;;5043845;28;20483;-66
2023/08/23 07:11:11;;;;;;;17.10;11.77;;;;;;;;;;5046382;28;20461;-65
2023/08/23 07:13:39;;;;;;;16.30;9.80;;;;;;;;;;5043401;28;20417;-66
2023/08/23 07:16:06;;;;;;;17.65;11.68;;;;;;;;;;5044720;28;20520;-66
2023/08/23 07:18:33;;;;;;;17.50;11.55;;;;;;;;;;5043049;28;20417;-65
2023/08/23 07:21:01;;;;;;;15.65;11.40;;;;;;;;;;5043729;28;20426;-65
2023/08/23 07:23:28;;;;;;;18.40;10.93;;;;;;;;;;5043494;28;20420;-65
2023/08/23 07:25:57;;;;;;;17.08;11.38;;;;;;;;;;5046154;28;20467;-66
2023/08/23 07:28:24;;;;;;;17.13;10.97;;;;;;;;;;5047529;28;20413;-65
2023/08/23 07:30:56;;;;;;;20.27;11.48;;;;;;;;;;5047796;28;20781;-64
2023/08/23 07:33:23;;;;;;;16.33;10.77;;;;;;;;;;5048808;28;20417;-65
2023/08/23 07:35:55;;;;;;;15.52;10.35;;;;;;;;;;5042204;28;20430;-64
2023/08/23 07:38:22;;;;;;;20.42;10.50;;;;;;;;;;5045464;28;20437;-64
2023/08/23 07:40:49;;;;;;;18.40;10.10;;;;;;;;;;5048968;28;20476;-64
2023/08/23 07:43:17;;;;;;;17.88;9.63;;;;;;;;;;5046028;28;20409;-64
2023/08/23 07:45:44;;;;;;;14.25;10.25;;;;;;;;;;5049165;28;20471;-63
2023/08/23 07:48:11;;;;;;;14.07;9.80;;;;;;;;;;5049055;28;20826;-64
2023/08/23 07:50:38;;;;;;;16.83;10.52;;;;;;;;;;5042814;28;20444;-65
2023/08/23 07:53:05;;;;;;;16.88;10.50;;;;;;;;;;5046709;28;20481;-63
2023/08/23 07:55:32;;;;;;;21.67;10.10;;;;;;;;;;5049212;28;20429;-63
2023/08/23 07:58:00;;;;;;;19.23;10.65;;;;;;;;;;5046585;28;20804;-63
2023/08/23 08:00:28;;;;;;;16.17;9.70;;;;;;;;;;5042644;28;20899;-63
2023/08/23 08:02:55;;;;;;;18.92;10.07;;;;;;;;;;5048683;28;20409;-63
2023/08/23 08:05:22;;;;;;;17.67;10.75;;;;;;;;;;5043212;28;20405;-65
2023/08/23 08:07:49;;;;;;;15.18;10.25;;;;;;;;;;5043220;28;20890;-67
2023/08/23 08:10:16;;;;;;;14.60;8.43;;;;;;;;;;5043245;28;20553;-65
2023/08/23 08:12:43;;;;;;;16.65;10.32;;;;;;;;;;5042017;28;20421;-67
2023/08/23 08:15:11;;;;;;;16.45;9.75;;;;;;;;;;5046610;28;20425;-65
2023/08/23 08:17:39;;;;;;;16.40;8.40;;;;;;;;;;5047309;28;20467;-65
2023/08/23 08:20:08;;;;;;;15.95;9.90;;;;;;;;;;5042033;28;20415;-67
2023/08/23 08:22:35;;;;;;;20.48;10.75;;;;;;;;;;5043031;28;20923;-67
2023/08/23 08:25:02;;;;;;;20.07;10.00;;;;;;;;;;5042222;28;20448;-65
2023/08/23 08:27:29;;;;;;;17.10;10.68;;;;;;;;;;5042322;28;20413;-64
2023/08/23 08:29:56;;;;;;;18.08;10.35;;;;;;;;;;5039936;28;20415;-64
2023/08/23 08:32:24;;;;;;;17.48;8.80;;;;;;;;;;5045118;28;20940;-64
2023/08/23 08:34:52;;;;;;;15.93;8.55;;;;;;;;;;5041369;28;20799;-64
2023/08/23 08:37:21;;;;;;;15.10;8.85;;;;;;;;;;5040974;28;20889;-64
2023/08/23 08:39:49;;;;;;;14.02;8.88;;;;;;;;;;5052692;28;20500;-64
2023/08/23 08:42:16;;;;;;;14.75;8.45;;;;;;;;;;5059193;28;20918;-64
2023/08/23 08:44:43;;;;;;;14.32;9.35;;;;;;;;;;5071606;28;20416;-64
2023/08/23 08:47:10;;;;;;;14.98;8.77;;;;;;;;;;5049116;28;20413;-64
2023/08/23 08:49:37;;;;;;;14.50;8.57;;;;;;;;;;5042186;28;20405;-64
2023/08/23 08:52:06;;;;;;;12.07;8.60;;;;;;;;;;5045740;28;20407;-64
2023/08/23 08:54:34;;;;;;;10.60;6.70;;;;;;;;;;5042417;28;20426;-63
2023/08/23 08:57:02;;;;;;;14.07;6.93;;;;;;;;;;5042484;28;20928;-57
2023/08/23 08:59:29;;;;;;;12.27;6.75;;;;;;;;;;5042682;28;20411;-58
2023/08/23 09:01:58;;;;;;;12.05;6.22;;;;;;;;;;5042369;28;20492;-58
2023/08/23 09:04:25;;;;;;;14.60;6.28;;;;;;;;;;5043953;28;20409;-56
2023/08/23 09:06:53;;;;;;;12.30;7.00;;;;;;;;;;5043131;28;20568;-59
2023/08/23 09:09:21;;;;;;;11.70;7.30;;;;;;;;;;5044544;28;20413;-60
2023/08/23 09:11:49;;;;;;;10.23;6.47;;;;;;;;;;5047850;28;20414;-60
2023/08/23 09:14:16;;;;;;;11.20;6.70;;;;;;;;;;5048437;28;20416;-60
2023/08/23 09:16:44;;;;;;;12.73;6.93;;;;;;;;;;5045004;28;20436;-60
2023/08/23 09:19:11;;;;;;;10.30;6.10;;;;;;;;;;5047037;28;20504;-61
2023/08/23 09:21:43;;;;;;;11.20;5.82;;;;;;;;;;5046194;28;20417;-59
2023/08/23 09:24:10;;;;;;;11.65;6.10;;;;;;;;;;5047088;28;20510;-61
2023/08/23 09:26:38;;;;;;;11.35;5.75;;;;;;;;;;5045088;28;20405;-59
2023/08/23 09:29:05;;;;;;;11.98;5.95;;;;;;;;;;5049013;28;20411;-60
2023/08/23 09:31:33;;;;;;;10.95;5.80;;;;;;;;;;5042021;28;20400;-60
2023/08/23 09:34:00;;;;;;;11.25;6.07;;;;;;;;;;5047740;28;20422;-61
2023/08/23 09:36:28;;;;;;;9.80;5.40;;;;;;;;;;5046083;28;20832;-62
2023/08/23 09:38:55;;;;;;;9.82;5.22;;;;;;;;;;5047150;28;20447;-61
2023/08/23 09:41:23;;;;;;;10.95;5.20;;;;;;;;;;5046411;28;20413;-61
2023/08/23 09:43:53;;;;;;;11.48;5.03;;;;;;;;;;5046281;28;20413;-60
2023/08/23 09:46:21;;;;;;;10.55;4.55;;;;;;;;;;5041115;28;20425;-61
2023/08/23 09:48:49;;;;;;;8.63;4.90;;;;;;;;;;5043110;28;20440;-64
2023/08/23 09:51:16;;;;;;;7.50;4.50;;;;;;;;;;5049462;28;20417;-63
2023/08/23 09:53:44;;;;;;;7.60;4.50;;;;;;;;;;5052122;28;20830;-63
2023/08/23 09:56:11;;;;;;;8.30;4.55;;;;;;;;;;5049160;28;20919;-63
2023/08/23 09:58:39;;;;;;;8.80;4.07;;;;;;;;;;5053094;28;20460;-66
2023/08/23 10:01:08;;;;;;;6.95;4.20;;;;;;;;;;5044117;28;20469;-65
2023/08/23 10:03:35;;;;;;;8.00;3.85;;;;;;;;;;5053178;28;20470;-65
2023/08/23 10:06:03;;;;;;;8.98;4.53;;;;;;;;;;5046437;28;20771;-64
2023/08/23 10:08:33;;;;;;;8.43;4.82;;;;;;;;;;5051944;28;20471;-62
2023/08/23 10:11:00;;;;;;;8.23;4.70;;;;;;;;;;5052142;28;20417;-63
2023/08/23 10:13:27;;;;;;;7.15;4.80;;;;;;;;;;5047486;28;20883;-62
2023/08/23 10:15:55;;;;;;;6.20;4.53;;;;;;;;;;5045132;28;20516;-62
2023/08/23 10:18:25;;;;;;;7.47;4.57;;;;;;;;;;5040551;28;20420;-65
2023/08/23 10:20:53;;;;;;;8.10;3.90;;;;;;;;;;5043331;28;20417;-64
2023/08/23 10:23:20;;;;;;;7.93;4.10;;;;;;;;;;5044946;28;20416;-64
2023/08/23 10:25:47;;;;;;;8.43;3.90;;;;;;;;;;5054112;28;20542;-64
2023/08/23 10:28:16;;;;;;;8.63;4.00;;;;;;;;;;5049232;28;20785;-64
2023/08/23 10:30:44;;;;;;;9.75;4.15;;;;;;;;;;5048998;28;20800;-64
2023/08/23 10:33:11;;;;;;;7.55;4.30;;;;;;;;;;5048445;28;20419;-64
2023/08/23 10:35:40;;;;;;;7.22;4.68;;;;;;;;;;5048823;28;20426;-64
2023/08/23 10:38:07;;;;;;;9.88;5.15;;;;;;;;;;5041946;28;20901;-64
2023/08/23 10:40:34;;;;;;;11.43;5.38;;;;;;;;;;5044511;28;20891;-65
2023/08/23 10:43:04;;;;;;;9.02;4.75;;;;;;;;;;5047536;28;21045;-64
2023/08/23 10:45:46;;;;;;;9.10;4.53;;;;;;;;;;5047565;28;20406;-65
2023/08/23 10:48:13;;;;;;;7.75;3.97;;;;;;;;;;5045012;28;20421;-67
2023/08/23 10:50:42;;;;;;;8.43;3.72;;;;;;;;;;5046939;28;20453;-63
2023/08/23 10:53:11;;;;;;;7.00;3.97;;;;;;;;;;5043237;28;20409;-63
2023/08/23 10:55:38;;;;;;;8.07;3.70;;;;;;;;;;5050060;28;20843;-63
2023/08/23 10:58:05;;;;;;;7.78;4.18;;;;;;;;;;5043086;28;20423;-64
2023/08/23 11:00:32;;;;;;;6.77;4.07;;;;;;;;;;5045307;28;20483;-63
2023/08/23 11:02:59;;;;;;;7.97;4.25;;;;;;;;;;5037644;28;20897;-63
2023/08/23 11:05:26;;;;;;;11.20;3.72;;;;;;;;;;5038994;28;20958;-64
2023/08/23 11:07:58;;;;;;;7.18;3.42;;;;;;;;;;5035666;28;20419;-63
2023/08/23 11:10:26;;;;;;;6.13;4.18;;;;;;;;;;5036165;28;20422;-63
2023/08/23 11:12:53;;;;;;;8.47;4.27;;;;;;;;;;5032435;28;20497;-63
2023/08/23 11:15:21;;;;;;;6.30;3.63;;;;;;;;;;5040464;28;20412;-63
2023/08/23 11:17:48;;;;;;;7.22;3.63;;;;;;;;;;5036064;28;20422;-64
2023/08/23 11:20:15;;;;;;;7.60;3.40;;;;;;;;;;5038845;28;20424;-64
2023/08/23 11:22:42;;;;;;;9.93;4.20;;;;;;;;;;5031840;28;20415;-64
2023/08/23 11:25:10;;;;;;;8.40;4.07;;;;;;;;;;5042546;28;20407;-62
2023/08/23 11:27:37;;;;;;;6.55;3.40;;;;;;;;;;5047575;28;20413;-63
2023/08/23 11:30:05;;;;;;;7.80;3.88;;;;;;;;;;5046601;28;20414;-64
2023/08/23 11:32:32;;;;;;;5.77;3.57;;;;;;;;;;5045123;28;20500;-64
2023/08/23 11:34:59;;;;;;;6.43;4.10;;;;;;;;;;5044715;28;20411;-64
2023/08/23 11:37:26;;;;;;;6.72;3.65;;;;;;;;;;5043652;28;20432;-62
2023/08/23 11:39:57;;;;;;;6.60;3.40;;;;;;;;;;5049106;28;20409;-62
2023/08/23 11:42:26;;;;;;;4.50;3.05;;;;;;;;;;5043112;28;20413;-62
2023/08/23 11:44:54;;;;;;;7.80;3.70;;;;;;;;;;5050123;28;20417;-62
2023/08/23 11:47:24;;;;;;;8.23;3.60;;;;;;;;;;5049533;28;20494;-62
2023/08/23 11:49:52;;;;;;;7.15;3.20;;;;;;;;;;5050608;28;20409;-62
2023/08/23 11:52:19;;;;;;;7.30;3.30;;;;;;;;;;5046792;28;20866;-62
2023/08/23 11:54:46;;;;;;;6.65;3.47;;;;;;;;;;5045306;28;20409;-62
2023/08/23 11:57:15;;;;;;;6.22;3.20;;;;;;;;;;5049104;28;20429;-62
2023/08/23 11:59:43;;;;;;;7.03;3.70;;;;;;;;;;5045496;28;20413;-61
2023/08/23 12:02:11;;;;;;;7.28;3.70;;;;;;;;;;5043614;28;20959;-62
2023/08/23 12:04:41;;;;;;;5.32;4.30;;;;;;;;;;5045547;28;20500;-63
2023/08/23 12:07:08;;;;;;;6.15;3.90;;;;;;;;;;5043291;28;20492;-64
2023/08/23 12:09:35;;;;;;;8.53;3.93;;;;;;;;;;5049562;28;20892;-63
2023/08/23 12:12:03;;;;;;;5.55;3.42;;;;;;;;;;5042519;28;20418;-62
2023/08/23 12:14:30;;;;;;;5.78;3.60;;;;;;;;;;5045775;28;20417;-62
2023/08/23 12:16:58;;;;;;;6.93;3.70;;;;;;;;;;5042253;28;20429;-62
2023/08/23 12:19:25;;;;;;;5.97;4.07;;;;;;;;;;5047516;28;20478;-63
2023/08/23 12:21:53;;;;;;;6.90;3.55;;;;;;;;;;5064298;28;20418;-63
2023/08/23 12:24:22;;;;;;;9.23;4.37;;;;;;;;;;5064292;28;20413;-63
2023/08/23 12:26:49;;;;;;;8.77;4.60;;;;;;;;;;5044673;28;20417;-63
2023/08/23 12:29:16;;;;;;;7.53;4.70;;;;;;;;;;5046811;28;20471;-64
2023/08/23 12:31:43;;;;;;;7.63;4.55;;;;;;;;;;5048560;28;20464;-64
2023/08/23 12:34:11;;;;;;;7.90;4.32;;;;;;;;;;5042155;28;20418;-64
2023/08/23 12:36:38;;;;;;;8.18;4.50;;;;;;;;;;5047743;28;20429;-67
2023/08/23 12:39:05;;;;;;;7.83;4.43;;;;;;;;;;5047747;28;20491;-60
2023/08/23 12:41:32;;;;;;;6.32;4.68;;;;;;;;;;5043408;28;20409;-62
2023/08/23 12:44:00;;;;;;;5.85;4.30;;;;;;;;;;5041130;28;20415;-63
2023/08/23 12:46:29;;;;;;;7.28;4.82;;;;;;;;;;5045533;28;20410;-62
2023/08/23 12:48:56;;;;;;;9.63;5.70;;;;;;;;;;5043953;28;20419;-62
2023/08/23 12:51:24;;;;;;;6.07;4.93;;;;;;;;;;5041217;28;20443;-62
2023/08/23 12:53:51;;;;;;;7.57;5.63;;;;;;;;;;5040678;28;20407;-64
2023/08/23 12:56:20;;;;;;;7.25;4.90;;;;;;;;;;5048107;28;20433;-64
2023/08/23 12:58:47;;;;;;;8.35;5.78;;;;;;;;;;5044724;28;20504;-62
2023/08/23 13:01:14;;;;;;;9.55;6.13;;;;;;;;;;5045946;28;20545;-62
2023/08/23 13:03:41;;;;;;;8.65;5.45;;;;;;;;;;5043922;28;20460;-62
2023/08/23 13:06:08;;;;;;;8.02;5.30;;;;;;;;;;5044601;28;20576;-62
2023/08/23 13:08:38;;;;;;;10.15;5.00;;;;;;;;;;5039379;28;20477;-62
2023/08/23 13:11:05;;;;;;;6.82;4.60;;;;;;;;;;5043367;28;20901;-62
2023/08/23 13:13:32;;;;;;;7.15;4.85;;;;;;;;;;5044232;28;20414;-62
2023/08/23 13:15:59;;;;;;;7.55;4.82;;;;;;;;;;5042703;28;20914;-62
2023/08/23 13:18:26;;;;;;;7.68;4.80;;;;;;;;;;5045686;28;20879;-63
2023/08/23 13:20:53;;;;;;;6.88;4.22;;;;;;;;;;5048849;28;20444;-62
2023/08/23 13:23:20;;;;;;;8.88;4.55;;;;;;;;;;5048749;28;20469;-63
2023/08/23 13:25:48;;;;;;;6.97;4.63;;;;;;;;;;5046500;28;20409;-63
2023/08/23 13:28:16;;;;;;;7.10;4.30;;;;;;;;;;5044224;28;20482;-62
2023/08/23 13:30:43;;;;;;;6.72;4.10;;;;;;;;;;5045563;28;20847;-63
2023/08/23 13:33:10;;;;;;;8.13;4.30;;;;;;;;;;5039822;28;20893;-63
2023/08/23 13:35:37;;;;;;;6.82;4.35;;;;;;;;;;5048174;28;20413;-64
2023/08/23 13:38:04;;;;;;;7.60;3.70;;;;;;;;;;5048319;28;20974;-63
2023/08/23 13:40:31;;;;;;;6.63;3.50;;;;;;;;;;5050017;28;20498;-64
2023/08/23 13:42:59;;;;;;;5.47;3.40;;;;;;;;;;5052374;28;20416;-63
2023/08/23 13:45:26;;;;;;;8.07;4.55;;;;;;;;;;5050686;28;20815;-63
2023/08/23 13:47:53;;;;;;;7.07;3.83;;;;;;;;;;5048858;28;20441;-63
2023/08/23 13:50:21;;;;;;;9.13;4.03;;;;;;;;;;5048813;28;20428;-64
2023/08/23 13:52:48;;;;;;;8.00;4.80;;;;;;;;;;5043904;28;20421;-64
2023/08/23 13:55:15;;;;;;;6.53;3.88;;;;;;;;;;5051392;28;20413;-63
2023/08/23 13:57:43;;;;;;;8.13;3.75;;;;;;;;;;5054224;28;20467;-62
2023/08/23 14:00:11;;;;;;;9.02;3.53;;;;;;;;;;5053094;28;20478;-62
2023/08/23 14:02:38;;;;;;;5.57;3.65;;;;;;;;;;5050456;28;20414;-63
2023/08/23 14:05:06;;;;;;;7.78;3.97;;;;;;;;;;5055651;28;20421;-64
2023/08/23 14:07:34;;;;;;;9.90;3.55;;;;;;;;;;5044587;28;20499;-64
2023/08/23 14:10:01;;;;;;;7.82;3.30;;;;;;;;;;5049390;28;20421;-63
2023/08/23 14:12:28;;;;;;;7.00;3.28;;;;;;;;;;5047916;28;20483;-63
2023/08/23 14:14:55;;;;;;;7.30;3.22;;;;;;;;;;5050380;28;20413;-60
2023/08/23 14:17:23;;;;;;;5.43;3.35;;;;;;;;;;5047435;28;20429;-62
2023/08/23 14:19:51;;;;;;;4.30;2.90;;;;;;;;;;5046686;28;20420;-63
2023/08/23 14:22:18;;;;;;;5.10;3.53;;;;;;;;;;5046551;28;20427;-63
2023/08/23 14:24:45;;;;;;;5.53;3.45;;;;;;;;;;5045859;28;20419;-64
2023/08/23 14:27:12;;;;;;;7.13;3.47;;;;;;;;;;5049628;28;20859;-64
2023/08/23 14:29:39;;;;;;;6.28;3.30;;;;;;;;;;5048389;28;20535;-63
2023/08/23 14:32:06;;;;;;;5.63;3.20;;;;;;;;;;5045798;28;20409;-64
2023/08/23 14:34:34;;;;;;;5.75;3.20;;;;;;;;;;5053727;28;20416;-61
2023/08/23 14:37:01;;;;;;;5.72;2.90;;;;;;;;;;5051104;28;20457;-62